Stations météo

réclame
Mon MeteoGroup
Formigueres, France (7737): Température de l'air & dewpoint: 14.11.2017 12:00:00 - 20.11.2017 12:00:00 (CET)Formigueres, France (7737): Vitesse du vent & gusts: 14.11.2017 12:00:00 - 20.11.2017 12:00:00 (CET)Formigueres, France (7737): Direction du vent: 14.11.2017 12:00:00 - 20.11.2017 12:00:00 (CET)Formigueres, France (7737): Quantités de précipitations: 14.11.2017 12:00:00 - 20.11.2017 12:00:00 (CET)
Date & Time tt [°C] td [°C] ff [km/h] ff [knt] fx [km/h] fx [knt] dd rr [mm]
20.11.2017 12:00:00 12,0 0,1 11 6 26 14 NNE 0,0
20.11.2017 11:00:00 9,3 -0,6 8 4 15 8 NE 0,0
20.11.2017 10:00:00 4,3 -0,3 2 1 5 3 ENE 0,0
20.11.2017 09:00:00 1,0 -2,9 2 1 15 8 E 0,0
20.11.2017 08:00:00 -1,8 -3,5 8 4 16 9 WSW 0,0
20.11.2017 07:00:00 -1,6 -4,1 9 5 15 8 WSW -
20.11.2017 06:00:00 -1,1 -3,9 8 4 16 9 WSW 0,0
20.11.2017 05:00:00 -1,7 -4,5 4 2 13 7 W 0,0
20.11.2017 04:00:00 -2,7 -5,3 5 3 15 8 SW 0,0
20.11.2017 03:00:00 -1,1 -5,7 5 3 18 10 WSW 0,0
20.11.2017 02:00:00 -2,2 -6,2 4 2 11 6 NW 0,0
20.11.2017 01:00:00 -1,8 -7,3 4 2 8 4 WSW -
20.11.2017 00:00:00 -0,6 -7,4 2 1 11 6 NNE 0,0
19.11.2017 23:00:00 -0,9 -7,7 4 2 22 12 NW 0,0
19.11.2017 22:00:00 -0,4 -7,9 8 4 18 10 WSW 0,0
19.11.2017 21:00:00 0,6 -8,6 8 4 18 10 WSW 0,0
19.11.2017 20:00:00 1,8 -9,5 4 2 16 9 SSW 0,0
19.11.2017 19:00:00 1,2 -7,6 11 6 22 12 WSW -
19.11.2017 18:00:00 2,6 -8,2 9 5 28 15 WSW 0,0
19.11.2017 17:00:00 4,5 -8,0 16 9 26 14 N 0,0
19.11.2017 16:00:00 7,1 -7,7 15 8 34 18 NNE 0,0
19.11.2017 15:00:00 8,6 -7,6 18 10 34 18 NNE 0,0
19.11.2017 14:00:00 9,4 -10,2 22 12 41 22 NNE 0,0
19.11.2017 13:00:00 10,6 -10,9 16 9 34 18 NNE -
19.11.2017 12:00:00 10,1 -13,9 13 7 35 19 N 0,0
19.11.2017 11:00:00 8,5 -13,2 11 6 29 16 NNE 0,0
19.11.2017 10:00:00 3,4 -8,0 4 2 9 5 SE 0,0
19.11.2017 09:00:00 -0,7 -11,8 2 1 15 8 W 0,0
19.11.2017 08:00:00 -2,9 -13,5 5 3 16 9 SW 0,0
19.11.2017 07:00:00 -2,8 -12,6 9 5 16 9 W -
19.11.2017 06:00:00 -3,7 -12,9 8 4 18 10 WSW 0,0
19.11.2017 05:00:00 -3,5 -12,7 8 4 15 8 WSW 0,0
19.11.2017 04:00:00 -4,5 -12,7 4 2 16 9 WNW 0,0
19.11.2017 03:00:00 -3,9 -12,3 5 3 15 8 W 0,0
19.11.2017 02:00:00 -4,0 -12,7 4 2 13 7 WSW 0,0
19.11.2017 01:00:00 -4,2 -12,1 4 2 16 9 WSW -
19.11.2017 00:00:00 -2,7 -11,5 9 5 22 12 WSW 0,0
18.11.2017 23:00:00 -2,4 -11,2 11 6 18 10 WSW 0,0
18.11.2017 22:00:00 -1,7 -11,3 8 4 22 12 WSW 0,0
18.11.2017 21:00:00 -1,4 -10,0 15 8 18 10 W 0,0
18.11.2017 20:00:00 -0,6 -8,1 11 6 18 10 W 0,0
18.11.2017 19:00:00 0,1 -5,1 4 2 8 4 W -
18.11.2017 18:00:00 2,8 -3,3 0 0 18 10 N 0,0
18.11.2017 17:00:00 5,1 -1,6 9 5 26 14 NW 0,0
18.11.2017 16:00:00 7,6 -0,6 18 10 35 19 N 0,0
18.11.2017 15:00:00 8,7 -2,3 22 12 44 24 N 0,0
18.11.2017 14:00:00 9,8 -2,8 15 8 34 18 NNE 0,0
18.11.2017 13:00:00 9,3 -2,7 22 12 41 22 NNE -
18.11.2017 12:00:00 8,7 -2,6 18 10 39 21 N 0,0
18.11.2017 11:00:00 7,8 -2,3 22 12 42 23 NNE 0,0
18.11.2017 10:00:00 6,6 -2,6 11 6 26 14 N 0,0
18.11.2017 09:00:00 4,7 -3,6 5 3 18 10 NE 0,0
18.11.2017 08:00:00 -0,2 -4,8 8 4 26 14 WSW 0,0
18.11.2017 07:00:00 1,7 -4,6 11 6 37 20 W -
18.11.2017 06:00:00 3,5 -4,2 16 9 28 15 N 0,0
18.11.2017 05:00:00 2,1 -4,6 9 5 18 10 NE 0,0
18.11.2017 04:00:00 -0,2 -5,2 2 1 9 5 W 0,0
18.11.2017 03:00:00 -0,3 -4,9 4 2 11 6 SSE 0,0
18.11.2017 02:00:00 -1,8 -4,6 2 1 9 5 SW 0,0
18.11.2017 01:00:00 -0,2 -4,1 2 1 22 12 WNW -
18.11.2017 00:00:00 0,3 -4,0 9 5 24 13 WSW 0,0
17.11.2017 23:00:00 1,1 -4,0 13 7 21 11 WSW 0,0
17.11.2017 22:00:00 3,2 -3,6 5 3 18 10 W 0,0
17.11.2017 21:00:00 5,0 -3,6 11 6 28 15 NNW 0,0
17.11.2017 20:00:00 5,3 -3,0 22 12 31 17 NNW 0,0
17.11.2017 19:00:00 5,4 -2,2 16 9 26 14 N -
17.11.2017 18:00:00 5,1 -1,8 8 4 21 11 N 0,0
17.11.2017 17:00:00 7,2 -1,5 11 6 22 12 N 0,0
17.11.2017 16:00:00 9,9 -0,6 11 6 31 17 N 0,0
17.11.2017 15:00:00 11,5 0,0 15 8 39 21 NNE 0,0
17.11.2017 14:00:00 12,1 0,2 18 10 34 18 NNE 0,0
17.11.2017 13:00:00 11,7 -0,5 16 9 31 17 NE -
17.11.2017 12:00:00 11,3 -1,2 16 9 34 18 NE 0,0
17.11.2017 11:00:00 10,4 -2,0 11 6 24 13 NE 0,0
17.11.2017 10:00:00 6,4 -3,6 4 2 18 10 NE 0,0
17.11.2017 09:00:00 1,3 -5,2 11 6 18 10 WSW 0,0
17.11.2017 08:00:00 2,5 -5,4 4 2 16 9 W 0,0
17.11.2017 07:00:00 3,9 -5,6 11 6 24 13 NNW -
17.11.2017 06:00:00 4,4 -5,9 15 8 24 13 NNW 0,0
17.11.2017 05:00:00 4,3 -7,8 11 6 28 15 NNW 0,0
17.11.2017 04:00:00 4,9 -9,3 13 7 26 14 N 0,0
17.11.2017 03:00:00 4,6 -8,9 13 7 22 12 NNW 0,0
17.11.2017 02:00:00 4,7 -9,1 13 7 24 13 N 0,0
17.11.2017 01:00:00 5,2 -10,2 5 3 16 9 N -
17.11.2017 00:00:00 5,2 -10,2 8 4 22 12 NW 0,0
16.11.2017 23:00:00 4,8 -9,0 9 5 26 14 N 0,0
16.11.2017 22:00:00 5,8 -8,5 11 6 29 16 NW 0,0
16.11.2017 21:00:00 5,5 -7,1 16 9 29 16 NNW 0,0
16.11.2017 20:00:00 5,1 -6,8 15 8 28 15 NNW 0,0
16.11.2017 19:00:00 5,5 -6,7 15 8 34 18 NW -
16.11.2017 18:00:00 6,2 -5,8 16 9 28 15 NNW 0,0
16.11.2017 17:00:00 7,5 -5,6 13 7 26 14 NNW 0,0
16.11.2017 16:00:00 10,7 -7,6 8 4 46 25 NW 0,0
16.11.2017 15:00:00 10,9 -8,9 15 8 44 24 N 0,0
16.11.2017 14:00:00 11,4 -8,5 15 8 37 20 NNE 0,0
16.11.2017 13:00:00 11,7 -7,7 15 8 54 29 NNE -
16.11.2017 12:00:00 10,8 -7,0 16 9 42 23 NNE 0,0
16.11.2017 11:00:00 9,4 -6,9 8 4 16 9 N 0,0
16.11.2017 10:00:00 3,2 -5,7 4 2 15 8 N 0,0
16.11.2017 09:00:00 0,2 -7,3 5 3 18 10 W 0,0
16.11.2017 08:00:00 -2,5 -8,6 5 3 18 10 WSW 0,0
16.11.2017 07:00:00 -2,7 -8,4 9 5 22 12 W -
16.11.2017 06:00:00 -2,9 -8,4 8 4 21 11 WSW 0,0
16.11.2017 05:00:00 -2,3 -8,0 11 6 22 12 W 0,0
16.11.2017 04:00:00 -2,2 -7,7 8 4 21 11 W 0,0
16.11.2017 03:00:00 -1,6 -7,3 9 5 18 10 WSW 0,0
16.11.2017 02:00:00 -1,8 -6,9 11 6 21 11 W 0,0
16.11.2017 01:00:00 -1,3 -6,5 8 4 21 11 WSW -
16.11.2017 00:00:00 -1,3 -5,9 5 3 18 10 W 0,0
15.11.2017 23:00:00 0,1 -5,5 9 5 21 11 WSW 0,0
15.11.2017 22:00:00 0,9 -5,4 5 3 18 10 WSW 0,0
15.11.2017 21:00:00 4,3 -5,5 11 6 18 10 NNW 0,0
15.11.2017 20:00:00 4,2 -5,9 8 4 34 18 NNW 0,0
15.11.2017 19:00:00 4,8 -5,9 15 8 34 18 NNW -
15.11.2017 18:00:00 5,1 -5,6 18 10 34 18 NNW 0,0
15.11.2017 17:00:00 6,7 -5,6 16 9 31 17 N 0,0
15.11.2017 16:00:00 9,3 -5,4 13 7 41 22 N 0,0
15.11.2017 15:00:00 9,4 -5,3 21 11 46 25 NNE 0,0
15.11.2017 14:00:00 9,9 -4,5 26 14 41 22 NNE 0,0
15.11.2017 13:00:00 7,9 -5,2 18 10 39 21 NNE -
15.11.2017 12:00:00 10,3 -5,3 16 9 34 18 NNE 0,0
15.11.2017 11:00:00 7,4 -8,7 18 10 29 16 NNE 0,0
15.11.2017 10:00:00 5,9 -10,0 8 4 15 8 NE 0,0
15.11.2017 09:00:00 0,0 -10,8 0 0 9 5 N 0,0
15.11.2017 08:00:00 -5,7 -14,2 8 4 15 8 WSW 0,0
15.11.2017 07:00:00 -7,5 -13,5 4 2 13 7 SW -
15.11.2017 06:00:00 -5,9 -14,0 5 3 13 7 W 0,0
15.11.2017 05:00:00 -6,1 -14,1 8 4 16 9 W 0,0
15.11.2017 04:00:00 -6,2 -14,0 9 5 16 9 WSW 0,0
15.11.2017 03:00:00 -5,6 -13,4 15 8 22 12 W 0,0
15.11.2017 02:00:00 -6,0 -13,2 9 5 24 13 WSW 0,0
15.11.2017 01:00:00 -7,2 -12,5 4 2 18 10 SSW -
15.11.2017 00:00:00 -6,3 -11,8 2 1 22 12 WSW 0,0
14.11.2017 23:00:00 -5,7 -10,5 9 5 15 8 WSW 0,0
14.11.2017 22:00:00 -5,0 -8,7 5 3 13 7 SSW 0,0
14.11.2017 21:00:00 -3,8 -6,9 8 4 35 19 SSE 0,0
14.11.2017 20:00:00 -2,2 -6,2 24 13 39 21 NNW 0,0
14.11.2017 19:00:00 -1,5 -7,2 22 12 42 23 N -
14.11.2017 18:00:00 -1,5 -6,1 21 11 44 24 NNW 0,0
14.11.2017 17:00:00 -0,4 -7,4 16 9 59 32 N 0,0
14.11.2017 16:00:00 1,5 -7,1 39 21 65 35 NNE 0,0
14.11.2017 15:00:00 3,1 -10,2 29 16 67 36 NNE 0,0
14.11.2017 14:00:00 3,4 -11,8 35 19 67 36 NNE 0,0
14.11.2017 13:00:00 3,2 -14,5 34 18 70 38 N -
14.11.2017 12:00:00 2,3 -12,7 34 18 70 38 N 0,0

tt = Température de l'air
td = dewpoint
ff = Vitesse du vent
fx = gusts
dd = Direction du vent
rr = Quantités de précipitations

stations d'obs. à proximité